Flight Track Log - Related Links

Times and Time Zones

All times are in EDT time to prevent confusion due to time zone crossing. See the RPA3159 flight status page for this flight to view local times or setup timezone preferences in your user account.

Time Position Orientation Groundspeed Altitude Reporting Facility
EDT Latitude Longitude Course Direction KTS MPH feet Rate Location/Type
Fri 11:40:00 AM 44.2016 -73.2500 180° South  Level FlightAware Approximate
Fri 11:40:56 AM 44.3094 -73.1017 195° South 294 338 6,800  Level Boston Center
Fri 11:41:00 AM 44.1127 -73.2828 195° South  Level FlightAware Approximate
Fri 11:41:56 AM 44.2303 -73.0803 169° South 299 344 9,900  Level Boston Center
Fri 11:42:00 AM 44.0234 -73.3144 194° South  Level FlightAware Approximate
Fri 11:42:56 AM 44.1511 -73.1056 193° South 291 335 11,900  Level Boston Center
Fri 11:43:00 AM 43.9339 -73.3443 193° South  Level FlightAware Approximate
Fri 11:43:56 AM 44.0653 -73.1481 200° South 312 359 14,000  Level Boston Center
Fri 11:44:00 AM 43.8449 -73.3770 195° South  Level FlightAware Approximate
Fri 11:44:56 AM 43.9714 -73.1958 200° South 342 394 15,800  Level Boston Center
Fri 11:45:00 AM 43.7560 -73.4104 195° South  Level FlightAware Approximate
Fri 11:45:56 AM 43.8772 -73.2436 200° South 361 415 17,800  Level Boston Center
Fri 11:46:00 AM 43.6671 -73.4436 195° South  Level FlightAware Approximate
Fri 11:46:56 AM 43.7811 -73.2914 200° South 366 421 19,300  Level Boston Center
Fri 11:47:56 AM 43.6806 -73.3444 201° Southwest 383 441 21,100 1,550 Climbing Boston Center
Fri 11:48:56 AM 43.5864 -73.3889 199° South 390 449 22,400 1,350 Climbing Boston Center
Fri 11:49:56 AM 43.4819 -73.4386 199° South 396 456 23,800 1,550 Climbing Boston Center
Fri 11:50:56 AM 43.3811 -73.5114 208° Southwest 401 461 25,500 1,100 Climbing Boston Center
Fri 11:51:56 AM 43.3008 -73.6125 223° Southwest 401 461 26,000 250 Climbing Boston Center
Fri 11:52:56 AM 43.2081 -73.7306 223° Southwest 407 468 26,000  Level Boston Center
Fri 11:53:56 AM 43.1214 -73.8339 221° Southwest 418 481 26,000  Level Boston Center
Fri 11:54:56 AM 43.0453 -73.9231 221° Southwest 418 481 26,000  Level Boston Center
Fri 11:55:56 AM 42.9625 -74.0261 222° Southwest 413 475 26,000  Level Boston Center
Fri 11:56:56 AM 42.8756 -74.1286 221° Southwest 418 481 26,000  Level Boston Center
Fri 11:57:56 AM 42.7928 -74.2339 223° Southwest 418 481 26,000 -50 Level Boston Center
Fri 11:58:56 AM 42.7056 -74.3386 221° Southwest 418 481 25,900 -450 Descending Boston Center
Fri 11:59:56 AM 42.6183 -74.4406 221° Southwest 418 481 25,100 -450 Descending Boston Center
Fri 12:00:56 PM 42.5308 -74.5447 221° Southwest 418 481 25,000 -50 Descending Boston Center
Fri 12:01:56 PM 42.4436 -74.6486 221° Southwest 423 487 25,000  Level Boston Center
Fri 12:02:56 PM 42.3581 -74.7497 221° Southwest 423 487 25,000 -196 Level Boston Center
Fri 12:04:29 PM 42.2175 -74.9122 221° Southwest 416 479 24,500 -941 Descending New York Center
Fri 12:05:29 PM 42.1333 -74.9964 217° Southwest 421 484 22,600 -1,881 Descending New York Center
Fri 12:06:27 PM 42.0369 -75.0767 212° Southwest 421 484 20,800 -1,831 Descending New York Center
Fri 12:07:27 PM 41.9358 -75.1594 211° Southwest 407 468 19,000 -893 Descending New York Center
Fri 12:08:28 PM 41.8436 -75.2339 211° Southwest 388 447 19,000 -198 Level New York Center
Fri 12:09:28 PM 41.7744 -75.3044 217° Southwest 375 432 18,600 -1,000 Descending New York Center
Fri 12:10:28 PM 41.7247 -75.4039 236° Southwest 334 384 17,000 -1,438 Descending New York Center
Fri 12:11:29 PM 41.6706 -75.5111 236° Southwest 322 371 15,700 -1,059 Descending New York Center
Fri 12:12:27 PM 41.6208 -75.6075 235° Southwest 315 362 14,900 -1,160 Descending New York Center
Fri 12:13:28 PM 41.5697 -75.6814 227° Southwest 315 362 13,400 -1,438 Descending New York Center
Fri 12:14:28 PM 41.4819 -75.6944 186° South 298 343 12,000 -706 Descending New York Center
Fri 12:15:27 PM 41.3819 -75.6925 179° South 321 369 12,000  Level New York Center
Fri 12:16:27 PM 41.2842 -75.6911 179° South 346 398 12,000  Level New York Center
Fri 12:17:27 PM 41.1758 -75.6886 179° South 364 419 12,000  Level New York Center
Fri 12:18:28 PM 41.0781 -75.6869 179° South 364 419 12,000  Level New York Center
Fri 12:19:28 PM 40.9781 -75.6881 180° South 364 419 12,000  Level New York Center
Fri 12:20:29 PM 40.8803 -75.6836 178° South 364 419 12,000  Level New York Center
Fri 12:21:28 PM 40.7864 -75.6386 160° South 359 413 12,000 -350 Level New York Center
Fri 12:22:29 PM 40.7050 -75.5864 154° Southeast 359 413 11,300 -893 Descending New York Center
Fri 12:23:29 PM 40.6033 -75.5244 155° Southeast 371 427 10,200 -650 Descending New York Center
Fri 12:24:29 PM 40.5219 -75.4750 155° Southeast 355 409 10,000 -102 Descending New York Center
Fri 12:25:27 PM 40.4467 -75.4292 155° Southeast 313 360 10,000 -458 Level New York Center
Fri 12:26:27 PM 40.3794 -75.3919 157° South 299 344 9,100 -1,289 Descending New York Center
Fri 12:27:28 PM 40.3100 -75.3517 156° South 288 331 7,400 -1,033 Descending New York Center
Fri 12:28:29 PM 40.2347 -75.3061 155° Southeast 288 331 7,000 -248 Descending New York Center
Fri 12:29:29 PM 40.1572 -75.2656 158° South 288 331 6,900 -496 Descending New York Center
Fri 12:30:30 PM 40.0958 -75.2319 157° South 288 331 6,000 -454 Descending New York Center
Fri 12:31:28 PM 40.0203 -75.1944 159° South 278 320 6,000  Level New York Center
Fri 12:32:28 PM 39.9847 -75.1408 131° Southeast 213 245 6,000  Level New York Center
Fri 12:33:39 PM 40.0000 -75.0333 79° East 219 252 6,000 -321 Level Philadelphia TRACON
Fri 12:34:39 PM 40.0167 -74.9667 72° East 215 247 5,300 -526 Descending Philadelphia TRACON
Fri 12:35:33 PM 40.0333 -74.9000 72° East 214 246 5,000 -150 Descending Philadelphia TRACON
Fri 12:36:39 PM 40.0167 -74.8333 108° East 202 232 5,000  Level Philadelphia TRACON
Fri 12:37:27 PM 39.9839 -74.8128 154° Southeast 154 177 5,000  Level New York Center
Fri 12:38:28 PM 39.9322 -74.8017 171° South 159 183 5,000 -591 Level New York Center
Fri 12:39:39 PM 39.9500 -74.8833 286° West 191 220 3,700 -916 Descending Philadelphia TRACON
Fri 12:40:39 PM 39.9333 -74.9500 252° West 188 216 3,000 -500 Descending Philadelphia TRACON
Fri 12:41:39 PM 39.9167 -75.0000 247° West 175 201 2,700 -300 Descending Philadelphia TRACON
Fri 12:42:39 PM 39.9000 -75.0667 252° West 180 207 2,400 -650 Descending Philadelphia TRACON
Fri 12:43:39 PM 39.9000 -75.1333 270° West 176 203 1,400 -850 Descending Philadelphia TRACON
Fri 12:44:39 PM 39.8833 -75.1833 247° West 124 143 700 -700 Descending Philadelphia TRACON

Login

Don't have an account? Register now (free) for customized features, flight alerts, and more!